createdAt,value
2024-05-09T00:00:38.020Z,75.6
2024-05-09T00:01:49.467Z,75.7
2024-05-09T00:02:55.714Z,75.6
2024-05-09T00:04:02.801Z,75.2
2024-05-09T00:05:06.807Z,75.2
2024-05-09T00:06:14.132Z,75.3
2024-05-09T00:07:17.958Z,75.3
2024-05-09T00:08:27.683Z,75.3
2024-05-09T00:09:31.450Z,74.9
2024-05-09T00:10:44.261Z,75.0
2024-05-09T00:11:58.381Z,75.1
2024-05-09T00:13:12.058Z,75.1
2024-05-09T00:14:15.835Z,75.3
2024-05-09T00:15:25.188Z,75.5
2024-05-09T00:16:28.860Z,75.7
2024-05-09T00:17:36.258Z,75.8
2024-05-09T00:18:47.840Z,75.6
2024-05-09T00:19:57.388Z,75.8
2024-05-09T00:21:08.970Z,75.6
2024-05-09T00:22:23.678Z,75.7
2024-05-09T00:23:40.175Z,75.6
2024-05-09T00:24:57.046Z,75.3
2024-05-09T00:26:00.857Z,75.0
2024-05-09T00:27:08.542Z,74.8
2024-05-09T00:28:13.347Z,75.0
2024-05-09T00:29:22.917Z,75.2
2024-05-09T00:30:37.175Z,75.5
2024-05-09T00:31:54.826Z,75.4
2024-05-09T00:32:58.790Z,75.5
2024-05-09T00:34:06.947Z,75.5
2024-05-09T00:35:13.351Z,75.4
2024-05-09T00:36:22.715Z,75.4
2024-05-09T00:37:31.435Z,75.5
2024-05-09T00:38:38.821Z,75.7
2024-05-09T00:39:50.079Z,75.8
2024-05-09T00:40:57.099Z,75.5
2024-05-09T00:42:03.335Z,75.6
2024-05-09T00:43:10.359Z,75.7
2024-05-09T00:44:14.374Z,75.8
2024-05-09T00:45:21.277Z,75.8
2024-05-09T00:46:27.469Z,75.8
2024-05-09T00:47:42.682Z,75.8
2024-05-09T00:48:46.642Z,75.9
2024-05-09T00:49:56.170Z,75.9
2024-05-09T00:50:59.954Z,75.8
2024-05-09T00:52:06.657Z,75.9
2024-05-09T00:53:13.576Z,75.6
2024-05-09T00:54:20.386Z,75.6
2024-05-09T00:55:34.233Z,75.6
2024-05-09T00:56:43.657Z,75.8
2024-05-09T00:57:52.458Z,75.7
2024-05-09T00:58:59.394Z,75.7
2024-05-09T01:00:34.575Z,76.0
2024-05-09T01:01:46.289Z,75.8
2024-05-09T01:02:50.265Z,75.8
2024-05-09T01:03:57.710Z,75.8
2024-05-09T01:05:09.286Z,75.9
2024-05-09T01:06:15.971Z,75.8
2024-05-09T01:07:22.196Z,75.6
2024-05-09T01:08:29.204Z,75.4
2024-05-09T01:09:40.529Z,75.5
2024-05-09T01:10:53.904Z,75.6
2024-05-09T01:11:58.032Z,75.5
2024-05-09T01:13:08.356Z,75.5
2024-05-09T01:14:14.670Z,75.6
2024-05-09T01:15:21.527Z,75.4
2024-05-09T01:16:25.208Z,75.5
2024-05-09T01:17:40.240Z,75.6
2024-05-09T01:18:44.280Z,75.6
2024-05-09T01:19:51.346Z,75.6
2024-05-09T01:21:05.402Z,75.6
2024-05-09T01:22:22.294Z,75.6
2024-05-09T01:23:25.978Z,75.8
2024-05-09T01:24:32.866Z,75.6
2024-05-09T01:25:36.558Z,75.9
2024-05-09T01:26:46.061Z,75.8
2024-05-09T01:27:52.291Z,75.7
2024-05-09T01:28:59.167Z,75.9
2024-05-09T01:30:04.061Z,76.0
2024-05-09T01:31:13.666Z,75.9
2024-05-09T01:32:20.046Z,75.9
2024-05-09T01:33:30.433Z,76.2
2024-05-09T01:34:36.746Z,76.2
2024-05-09T01:35:53.591Z,76.1
2024-05-09T01:36:59.798Z,76.0
2024-05-09T01:38:08.095Z,76.0
2024-05-09T01:39:11.801Z,76.0
2024-05-09T01:40:38.998Z,75.9
2024-05-09T01:41:51.566Z,76.0
2024-05-09T01:42:58.199Z,75.8
2024-05-09T01:44:02.080Z,75.8
2024-05-09T01:45:13.882Z,75.9
2024-05-09T01:46:20.093Z,75.7
2024-05-09T01:47:27.768Z,75.7
2024-05-09T01:48:41.799Z,75.7
2024-05-09T01:49:49.227Z,75.6
2024-05-09T01:50:53.010Z,75.6
2024-05-09T01:52:20.151Z,75.8
2024-05-09T01:53:36.755Z,75.9
2024-05-09T01:54:43.649Z,75.5
2024-05-09T01:55:47.609Z,75.5
2024-05-09T01:56:54.342Z,75.7
2024-05-09T01:57:58.016Z,76.0
2024-05-09T01:59:15.275Z,76.0
2024-05-09T02:00:39.648Z,75.9
2024-05-09T02:02:19.825Z,76.0
2024-05-09T02:03:23.992Z,75.9
2024-05-09T02:04:39.121Z,75.7
2024-05-09T02:05:55.523Z,75.9
2024-05-09T02:07:02.302Z,75.5
2024-05-09T02:08:06.184Z,75.6
2024-05-09T02:09:13.071Z,75.9
2024-05-09T02:10:29.930Z,75.3
2024-05-09T02:11:42.128Z,75.1
2024-05-09T02:12:50.964Z,74.8
2024-05-09T02:14:00.817Z,75.4
2024-05-09T02:15:04.638Z,75.2
2024-05-09T02:16:29.108Z,75.4
2024-05-09T02:17:35.601Z,75.5
2024-05-09T02:18:44.398Z,75.2
2024-05-09T02:19:48.134Z,75.7
2024-05-09T02:20:57.563Z,75.5
2024-05-09T02:22:01.319Z,75.2
2024-05-09T02:23:38.854Z,75.9
2024-05-09T02:24:42.575Z,75.9
2024-05-09T02:25:49.532Z,75.9
2024-05-09T02:26:53.239Z,76.2
2024-05-09T02:28:10.185Z,76.0
2024-05-09T02:29:16.618Z,76.2
2024-05-09T02:30:44.587Z,75.6
2024-05-09T02:31:48.543Z,76.0
2024-05-09T02:33:04.027Z,76.0
2024-05-09T02:34:10.629Z,75.9
2024-05-09T02:35:20.312Z,75.7
2024-05-09T02:36:31.643Z,75.6
2024-05-09T02:37:48.717Z,75.6
2024-05-09T02:38:55.164Z,75.3
2024-05-09T02:40:35.209Z,76.2
2024-05-09T02:41:43.961Z,76.1
2024-05-09T02:42:58.440Z,75.6
2024-05-09T02:44:07.260Z,75.7
2024-05-09T02:45:16.764Z,76.2
2024-05-09T02:46:22.982Z,76.1
2024-05-09T02:47:38.065Z,75.8
2024-05-09T02:48:42.036Z,76.0
2024-05-09T02:49:56.810Z,76.2
2024-05-09T02:51:00.550Z,76.4
2024-05-09T02:52:09.959Z,76.0
2024-05-09T02:53:14.314Z,75.0
2024-05-09T02:54:26.508Z,75.0
2024-05-09T02:55:33.048Z,74.7
2024-05-09T02:56:47.747Z,75.1
2024-05-09T02:57:59.080Z,75.4
2024-05-09T02:59:29.196Z,75.8
2024-05-09T03:00:55.825Z,76.3
2024-05-09T03:02:15.793Z,75.9
2024-05-09T03:03:19.946Z,76.0
2024-05-09T03:04:27.054Z,75.9
2024-05-09T03:05:31.074Z,76.2
2024-05-09T03:06:37.900Z,76.0
2024-05-09T03:07:46.748Z,75.9
2024-05-09T03:08:58.558Z,76.0
2024-05-09T03:10:02.340Z,76.1
2024-05-09T03:11:10.214Z,76.4
2024-05-09T03:12:16.704Z,76.6
2024-05-09T03:13:26.213Z,76.5
2024-05-09T03:14:32.595Z,76.3
2024-05-09T03:15:42.128Z,76.4
2024-05-09T03:16:48.438Z,76.4
2024-05-09T03:18:07.523Z,76.2
2024-05-09T03:19:11.624Z,76.2
2024-05-09T03:20:38.684Z,76.3
2024-05-09T03:21:47.544Z,76.2
2024-05-09T03:22:58.721Z,76.2
2024-05-09T03:24:02.366Z,76.2
2024-05-09T03:25:14.226Z,76.2
2024-05-09T03:26:25.519Z,76.4
2024-05-09T03:27:32.401Z,76.1
2024-05-09T03:28:36.107Z,76.4
2024-05-09T03:29:47.964Z,76.4
2024-05-09T03:30:51.662Z,76.5
2024-05-09T03:32:01.387Z,76.6
2024-05-09T03:33:08.119Z,76.8
2024-05-09T03:34:15.570Z,76.4
2024-05-09T03:35:19.403Z,75.7
2024-05-09T03:36:28.754Z,76.2
2024-05-09T03:37:34.977Z,76.4
2024-05-09T03:38:54.385Z,76.3
2024-05-09T03:40:00.615Z,76.7
2024-05-09T03:41:07.660Z,76.7
2024-05-09T03:42:13.889Z,76.7
2024-05-09T03:43:20.683Z,76.1
2024-05-09T03:44:24.437Z,76.4
2024-05-09T03:45:31.144Z,76.5
2024-05-09T03:46:42.406Z,76.6
2024-05-09T03:47:50.326Z,76.6
2024-05-09T03:48:54.251Z,76.5
2024-05-09T03:50:12.051Z,76.7
2024-05-09T03:51:24.109Z,76.6
2024-05-09T03:52:33.414Z,76.6
2024-05-09T03:53:42.312Z,76.6
2024-05-09T03:54:49.113Z,76.3
2024-05-09T03:55:55.357Z,76.6
2024-05-09T03:57:07.181Z,76.3
2024-05-09T03:58:26.115Z,76.1
2024-05-09T03:59:33.390Z,76.6
2024-05-09T04:00:41.316Z,76.5
2024-05-09T04:01:58.725Z,76.8
2024-05-09T04:03:11.695Z,76.5
2024-05-09T04:04:27.554Z,76.1
2024-05-09T04:05:31.604Z,76.5
2024-05-09T04:06:43.454Z,75.7
2024-05-09T04:07:49.717Z,75.3
2024-05-09T04:09:01.467Z,75.6
2024-05-09T04:10:09.085Z,76.0
2024-05-09T04:11:28.468Z,76.5
2024-05-09T04:12:32.303Z,76.5
2024-05-09T04:13:39.190Z,76.4
2024-05-09T04:14:50.465Z,76.8
2024-05-09T04:16:02.553Z,76.4
2024-05-09T04:17:06.441Z,76.1
2024-05-09T04:18:18.830Z,76.2
2024-05-09T04:19:25.925Z,76.7
2024-05-09T04:20:44.624Z,76.4
2024-05-09T04:21:48.377Z,76.6
2024-05-09T04:22:57.890Z,76.4
2024-05-09T04:24:01.625Z,76.5
2024-05-09T04:25:19.216Z,76.5
2024-05-09T04:26:38.155Z,76.4
2024-05-09T04:27:49.981Z,76.5
2024-05-09T04:28:58.796Z,76.3
2024-05-09T04:30:36.423Z,75.8
2024-05-09T04:31:43.347Z,76.0
2024-05-09T04:32:50.855Z,76.7
2024-05-09T04:33:57.515Z,76.7
2024-05-09T04:35:04.495Z,77.0
2024-05-09T04:36:10.700Z,76.6
2024-05-09T04:37:17.446Z,76.6
2024-05-09T04:38:26.272Z,76.7
2024-05-09T04:39:40.650Z,76.5
2024-05-09T04:40:44.415Z,76.6
2024-05-09T04:41:51.099Z,76.6
2024-05-09T04:42:54.796Z,76.7
2024-05-09T04:44:01.841Z,76.7
2024-05-09T04:45:05.532Z,76.8
2024-05-09T04:46:12.328Z,76.8
2024-05-09T04:47:31.515Z,76.8
2024-05-09T04:48:38.889Z,76.6
2024-05-09T04:49:50.511Z,76.8
2024-05-09T04:51:02.647Z,76.6
2024-05-09T04:52:08.835Z,76.7
2024-05-09T04:53:18.833Z,76.6
2024-05-09T04:54:36.379Z,76.7
2024-05-09T04:55:45.462Z,76.8
2024-05-09T04:56:49.228Z,76.8
2024-05-09T04:58:08.937Z,76.6
2024-05-09T04:59:28.224Z,76.5
2024-05-09T05:00:44.304Z,76.4
2024-05-09T05:01:48.126Z,76.4
2024-05-09T05:02:55.650Z,76.4
2024-05-09T05:04:04.863Z,76.2
2024-05-09T05:05:13.686Z,76.2
2024-05-09T05:06:17.446Z,76.6
2024-05-09T05:07:26.775Z,76.7
2024-05-09T05:08:30.555Z,76.8
2024-05-09T05:09:50.177Z,77.1
2024-05-09T05:10:54.586Z,77.2
2024-05-09T05:12:01.989Z,77.3
2024-05-09T05:13:05.769Z,77.4
2024-05-09T05:14:12.815Z,77.5
2024-05-09T05:15:16.558Z,77.4
2024-05-09T05:16:24.985Z,77.4
2024-05-09T05:17:36.818Z,77.4
2024-05-09T05:18:44.262Z,77.4
2024-05-09T05:19:48.275Z,77.4
2024-05-09T05:21:04.799Z,77.6
2024-05-09T05:22:08.726Z,77.6
2024-05-09T05:23:19.180Z,77.6
2024-05-09T05:24:25.442Z,77.7
2024-05-09T05:25:32.217Z,77.5
2024-05-09T05:26:36.424Z,77.5
2024-05-09T05:27:58.526Z,77.4
2024-05-09T05:29:04.894Z,77.4
2024-05-09T05:30:35.139Z,77.6
2024-05-09T05:31:41.833Z,77.7
2024-05-09T05:32:49.285Z,77.8
2024-05-09T05:33:53.226Z,77.8
2024-05-09T05:35:00.284Z,78.6
2024-05-09T05:36:04.118Z,78.7
2024-05-09T05:37:10.986Z,78.3
2024-05-09T05:38:22.796Z,78.5
2024-05-09T05:39:34.224Z,78.4
2024-05-09T05:40:43.066Z,78.5
2024-05-09T05:41:52.381Z,78.6
2024-05-09T05:42:56.119Z,78.2
2024-05-09T05:44:03.425Z,78.2
2024-05-09T05:45:10.767Z,78.7
2024-05-09T05:46:20.054Z,78.5
2024-05-09T05:47:24.079Z,78.4
2024-05-09T05:48:34.238Z,79.0
2024-05-09T05:49:38.349Z,79.1
2024-05-09T05:50:50.944Z,79.0
2024-05-09T05:51:57.244Z,78.4
2024-05-09T05:53:04.213Z,78.7
2024-05-09T05:54:12.988Z,78.4
2024-05-09T05:55:22.290Z,78.4
2024-05-09T05:56:32.773Z,79.8
2024-05-09T05:57:39.660Z,79.6
2024-05-09T05:58:48.618Z,79.4
2024-05-09T05:59:57.928Z,79.6
2024-05-09T06:01:04.203Z,79.5
2024-05-09T06:02:13.990Z,79.6
2024-05-09T06:03:25.453Z,79.1
2024-05-09T06:04:32.576Z,78.9
2024-05-09T06:05:36.406Z,78.8
2024-05-09T06:06:44.752Z,80.5
2024-05-09T06:07:48.506Z,80.0
2024-05-09T06:08:58.109Z,80.0
2024-05-09T06:10:14.080Z,81.0
2024-05-09T06:11:35.083Z,80.2
2024-05-09T06:12:38.963Z,80.1
2024-05-09T06:13:53.450Z,79.6
2024-05-09T06:14:57.198Z,80.0
2024-05-09T06:16:03.978Z,82.7
2024-05-09T06:17:07.924Z,83.4
2024-05-09T06:18:28.639Z,83.7
2024-05-09T06:19:35.225Z,83.1
2024-05-09T06:20:45.453Z,82.0
2024-05-09T06:22:04.356Z,83.1
2024-05-09T06:23:17.395Z,83.8
2024-05-09T06:24:21.150Z,81.9
2024-05-09T06:25:30.378Z,82.0
2024-05-09T06:26:36.742Z,81.7
2024-05-09T06:27:43.518Z,80.4
2024-05-09T06:28:49.926Z,81.3
2024-05-09T06:30:05.273Z,82.7
2024-05-09T06:31:10.294Z,81.8
2024-05-09T06:32:20.075Z,81.0
2024-05-09T06:33:24.395Z,83.8
2024-05-09T06:34:32.220Z,82.8
2024-05-09T06:35:36.433Z,82.2
2024-05-09T06:36:43.396Z,82.2
2024-05-09T06:37:52.207Z,81.1
2024-05-09T06:38:58.978Z,82.0
2024-05-09T06:40:03.130Z,82.5
2024-05-09T06:41:10.107Z,82.9
2024-05-09T06:42:16.429Z,82.9
2024-05-09T06:43:27.287Z,82.7
2024-05-09T06:44:33.594Z,83.4
2024-05-09T06:45:43.417Z,84.0
2024-05-09T06:46:47.390Z,83.5
2024-05-09T06:47:57.854Z,82.4
2024-05-09T06:49:02.045Z,82.5
2024-05-09T06:50:36.980Z,82.0
2024-05-09T06:51:57.257Z,81.0
2024-05-09T06:53:04.439Z,81.8
2024-05-09T06:54:08.103Z,82.0
2024-05-09T06:55:17.380Z,82.8
2024-05-09T06:56:21.205Z,82.8
2024-05-09T06:57:28.045Z,84.0
2024-05-09T06:58:34.252Z,84.9
2024-05-09T06:59:41.311Z,84.9
2024-05-09T07:00:50.479Z,84.8
2024-05-09T07:01:57.470Z,84.4
2024-05-09T07:03:05.648Z,83.9
2024-05-09T07:04:36.133Z,84.1
2024-05-09T07:05:51.434Z,83.1
2024-05-09T07:06:58.274Z,83.9
2024-05-09T07:08:02.021Z,83.9
2024-05-09T07:09:11.348Z,83.9
2024-05-09T07:10:34.414Z,84.5
2024-05-09T07:11:43.067Z,84.1
2024-05-09T07:12:49.368Z,83.8
2024-05-09T07:13:58.992Z,84.3
2024-05-09T07:15:05.212Z,84.6
2024-05-09T07:16:11.969Z,84.2
2024-05-09T07:17:23.739Z,84.2
2024-05-09T07:18:33.806Z,84.3
2024-05-09T07:19:42.836Z,84.1
2024-05-09T07:20:52.149Z,84.1
2024-05-09T07:22:01.041Z,83.1
2024-05-09T07:23:13.504Z,83.9
2024-05-09T07:24:19.754Z,84.3
2024-05-09T07:25:34.892Z,83.4
2024-05-09T07:26:41.169Z,83.9
2024-05-09T07:27:48.769Z,84.2
2024-05-09T07:28:52.668Z,84.2
2024-05-09T07:30:02.202Z,84.4
2024-05-09T07:31:09.115Z,84.8
2024-05-09T07:32:18.879Z,85.0
2024-05-09T07:33:26.519Z,85.0
2024-05-09T07:34:36.603Z,84.7
2024-05-09T07:35:43.064Z,84.7
2024-05-09T07:36:52.513Z,84.7
2024-05-09T07:38:01.442Z,84.9
2024-05-09T07:39:08.192Z,84.9
2024-05-09T07:40:24.758Z,84.7
2024-05-09T07:41:39.573Z,83.3
2024-05-09T07:42:43.347Z,84.3
2024-05-09T07:43:52.822Z,84.7
2024-05-09T07:45:30.197Z,83.7
2024-05-09T07:53:34.136Z,84.1
2024-05-09T07:54:58.753Z,83.1
2024-05-09T07:56:06.477Z,82.9
2024-05-09T07:57:10.392Z,82.9
2024-05-09T07:58:29.804Z,81.9
2024-05-09T07:59:43.635Z,82.5
2024-05-09T08:00:50.896Z,82.3
2024-05-09T08:01:59.945Z,81.2
2024-05-09T08:03:13.476Z,82.1
2024-05-09T08:04:26.618Z,81.8
2024-05-09T08:05:34.718Z,81.3
2024-05-09T08:06:41.305Z,81.3
2024-05-09T08:07:48.241Z,81.5
2024-05-09T08:09:00.846Z,79.1
2024-05-09T08:10:22.064Z,79.0
2024-05-09T08:11:28.607Z,78.0
2024-05-09T08:12:35.630Z,25.8
2024-05-09T08:13:39.346Z,76.4
2024-05-09T08:14:56.272Z,77.6
2024-05-09T08:16:05.222Z,78.6
2024-05-09T08:17:12.581Z,78.6
2024-05-09T08:18:19.376Z,77.7
2024-05-09T08:19:26.449Z,78.6
2024-05-09T08:20:37.075Z,79.2
2024-05-09T08:21:44.008Z,79.2
2024-05-09T08:22:52.817Z,79.8
2024-05-09T08:23:59.561Z,78.9
2024-05-09T08:25:03.258Z,79.5
2024-05-09T08:26:10.097Z,79.8
2024-05-09T08:27:16.311Z,79.2
2024-05-09T08:28:23.441Z,78.9
2024-05-09T08:29:30.109Z,78.6
2024-05-09T08:30:42.898Z,77.7
2024-05-09T08:31:51.773Z,74.4
2024-05-09T08:33:01.680Z,74.3
2024-05-09T08:34:05.752Z,74.3
2024-05-09T08:35:17.602Z,76.3
2024-05-09T08:36:21.213Z,75.2
2024-05-09T08:37:42.380Z,75.6
2024-05-09T08:38:46.093Z,75.6
2024-05-09T08:40:03.974Z,74.2
2024-05-09T08:41:10.319Z,73.7
2024-05-09T08:42:22.107Z,73.8
2024-05-09T08:43:31.078Z,73.5
2024-05-09T08:44:45.438Z,74.0
2024-05-09T08:45:49.224Z,74.2
2024-05-09T08:46:56.030Z,74.4
2024-05-09T08:47:59.872Z,74.3
2024-05-09T08:49:14.851Z,74.9
2024-05-09T08:50:37.679Z,73.8
2024-05-09T08:51:46.341Z,74.3
2024-05-09T08:52:55.137Z,72.6
2024-05-09T08:54:04.472Z,72.0
2024-05-09T08:55:08.208Z,72.1
2024-05-09T08:56:22.655Z,72.2
2024-05-09T08:57:31.455Z,72.3
2024-05-09T08:58:48.422Z,71.5
2024-05-09T08:59:52.071Z,71.5
2024-05-09T09:01:11.921Z,70.5
2024-05-09T09:02:16.146Z,70.5
2024-05-09T09:03:25.880Z,70.2
2024-05-09T09:04:37.425Z,70.2
2024-05-09T09:05:56.966Z,70.2
2024-05-09T09:07:05.038Z,70.4
2024-05-09T09:08:16.982Z,70.1
2024-05-09T09:09:28.503Z,71.0
2024-05-09T09:10:41.116Z,70.5
2024-05-09T09:11:44.897Z,70.4
2024-05-09T09:13:02.304Z,66.3
2024-05-09T09:14:07.236Z,66.7
2024-05-09T09:15:21.646Z,67.1
2024-05-09T09:16:30.631Z,67.3
2024-05-09T09:17:37.905Z,67.6
2024-05-09T09:18:52.072Z,66.0
2024-05-09T09:20:18.944Z,65.7
2024-05-09T09:21:29.472Z,65.8
2024-05-09T09:22:43.756Z,65.0
2024-05-09T09:23:47.415Z,61.7
2024-05-09T09:24:59.263Z,58.8
2024-05-09T09:26:03.202Z,55.7
2024-05-09T09:27:10.027Z,58.6
2024-05-09T09:28:13.900Z,61.2
2024-05-09T09:29:21.667Z,61.2
2024-05-09T09:30:38.293Z,62.7
2024-05-09T09:31:52.760Z,62.6
2024-05-09T09:32:59.053Z,63.3
2024-05-09T09:34:06.652Z,62.7
2024-05-09T09:35:10.442Z,61.9
2024-05-09T09:36:35.148Z,60.7
2024-05-09T09:37:41.371Z,60.4
2024-05-09T09:38:50.669Z,58.7
2024-05-09T09:39:54.444Z,58.7
2024-05-09T09:41:01.822Z,58.7
2024-05-09T09:42:08.336Z,55.6
2024-05-09T09:43:16.054Z,54.1
2024-05-09T09:44:19.732Z,50.6
2024-05-09T09:45:31.662Z,49.9
2024-05-09T09:46:35.524Z,49.6
2024-05-09T09:47:48.207Z,48.3
2024-05-09T09:48:52.202Z,48.3
2024-05-09T09:49:59.049Z,46.7
2024-05-09T09:51:02.735Z,45.7
2024-05-09T09:52:14.278Z,44.6
2024-05-09T09:53:28.224Z,43.4
2024-05-09T09:54:35.712Z,43.7
2024-05-09T09:55:39.430Z,42.9
2024-05-09T09:56:46.167Z,41.8
2024-05-09T09:57:49.927Z,40.8
2024-05-09T09:58:59.314Z,41.1
2024-05-09T10:00:05.509Z,40.8
2024-05-09T10:01:14.295Z,41.6
2024-05-09T10:02:21.008Z,41.9
2024-05-09T10:03:28.264Z,41.9
2024-05-09T10:04:39.931Z,41.0
2024-05-09T10:05:52.207Z,42.0
2024-05-09T10:07:01.080Z,42.8
2024-05-09T10:08:08.051Z,43.6
2024-05-09T10:09:11.767Z,43.9
2024-05-09T10:10:35.016Z,44.6
2024-05-09T10:11:49.316Z,46.4
2024-05-09T10:12:59.117Z,46.5
2024-05-09T10:14:02.829Z,47.6
2024-05-09T10:15:12.072Z,48.2
2024-05-09T10:16:18.398Z,48.9
2024-05-09T10:17:28.252Z,49.1
2024-05-09T10:18:37.504Z,47.5
2024-05-09T10:20:01.123Z,46.8
2024-05-09T10:21:04.779Z,45.9
2024-05-09T10:22:19.440Z,45.5
2024-05-09T10:23:25.710Z,44.4
2024-05-09T10:24:32.734Z,44.0
2024-05-09T10:25:41.534Z,43.7
2024-05-09T10:26:48.229Z,41.9
2024-05-09T10:27:56.969Z,41.8
2024-05-09T10:29:16.376Z,41.6
2024-05-09T10:30:35.508Z,41.1
2024-05-09T10:31:43.938Z,41.0
2024-05-09T10:32:53.055Z,39.5
2024-05-09T10:34:01.078Z,40.0
2024-05-09T10:35:05.062Z,39.6
2024-05-09T10:36:11.937Z,39.8
2024-05-09T10:37:15.774Z,40.0
2024-05-09T10:38:25.099Z,40.5
2024-05-09T10:39:31.363Z,39.7
2024-05-09T10:40:38.400Z,39.8
2024-05-09T10:41:44.596Z,39.6
2024-05-09T10:42:51.602Z,39.6
2024-05-09T10:43:55.261Z,40.6
2024-05-09T10:45:02.041Z,39.1
2024-05-09T10:46:05.922Z,39.0
2024-05-09T10:47:15.336Z,38.8
2024-05-09T10:48:24.404Z,38.4
2024-05-09T10:49:36.654Z,39.1
2024-05-09T10:50:40.357Z,39.7
2024-05-09T10:51:50.051Z,39.4
2024-05-09T10:53:01.362Z,38.8
2024-05-09T10:54:08.063Z,38.9
2024-05-09T10:55:11.932Z,38.1
2024-05-09T10:56:21.995Z,38.9
2024-05-09T10:57:28.304Z,38.1
2024-05-09T10:58:35.091Z,37.7
2024-05-09T10:59:38.777Z,37.7
2024-05-09T11:00:48.603Z,38.1
2024-05-09T11:01:55.244Z,38.2
2024-05-09T11:03:02.540Z,38.3
2024-05-09T11:04:06.478Z,37.7
2024-05-09T11:05:14.097Z,37.9
2024-05-09T11:06:20.428Z,38.3
2024-05-09T11:07:47.340Z,38.5
2024-05-09T11:08:56.035Z,37.5
2024-05-09T11:10:12.224Z,37.2
2024-05-09T11:11:16.345Z,37.5
2024-05-09T11:12:28.008Z,38.5
2024-05-09T11:13:39.561Z,38.3
2024-05-09T11:14:51.297Z,39.1
2024-05-09T11:15:55.105Z,39.0
2024-05-09T11:17:01.983Z,38.3
2024-05-09T11:18:05.945Z,38.1
2024-05-09T11:19:15.921Z,37.9
2024-05-09T11:20:34.593Z,38.1
2024-05-09T11:21:44.793Z,37.1
2024-05-09T11:22:58.661Z,37.2
2024-05-09T11:24:09.639Z,37.8
2024-05-09T11:25:17.201Z,38.3
2024-05-09T11:26:26.692Z,38.1
2024-05-09T11:27:35.548Z,39.0
2024-05-09T11:28:42.376Z,39.7
2024-05-09T11:29:46.066Z,40.4
2024-05-09T11:30:57.090Z,40.9
2024-05-09T11:32:00.951Z,41.1
2024-05-09T11:33:12.903Z,41.5
2024-05-09T11:34:19.300Z,42.0
2024-05-09T11:35:26.174Z,41.8
2024-05-09T11:36:29.953Z,41.2
2024-05-09T11:37:40.388Z,40.4
2024-05-09T11:38:46.587Z,40.0
2024-05-09T11:39:53.619Z,39.9
2024-05-09T11:40:57.441Z,39.8
2024-05-09T11:42:09.358Z,39.9
2024-05-09T11:43:13.101Z,38.6
2024-05-09T11:44:25.119Z,38.3
2024-05-09T11:45:28.775Z,37.7
2024-05-09T11:46:35.708Z,37.7
2024-05-09T11:47:39.639Z,38.0
2024-05-09T11:48:52.656Z,37.9
2024-05-09T11:50:01.699Z,37.1
2024-05-09T11:51:31.447Z,37.8
2024-05-09T11:52:40.176Z,37.2
2024-05-09T11:53:46.869Z,37.8
2024-05-09T11:54:50.586Z,38.2
2024-05-09T11:55:57.396Z,39.6
2024-05-09T11:57:01.105Z,40.4
2024-05-09T11:58:08.076Z,40.4
2024-05-09T11:59:19.365Z,40.9
2024-05-09T12:00:41.217Z,41.5
2024-05-09T12:01:47.682Z,41.5
2024-05-09T12:02:54.577Z,42.1
2024-05-09T12:03:58.912Z,42.1
2024-05-09T12:05:06.438Z,42.6
2024-05-09T12:06:15.184Z,41.6
2024-05-09T12:07:24.959Z,41.8
2024-05-09T12:08:28.673Z,42.0
2024-05-09T12:09:45.766Z,41.4
2024-05-09T12:11:17.457Z,41.4
2024-05-09T12:12:24.303Z,41.2
2024-05-09T12:13:28.211Z,40.7
2024-05-09T12:14:45.128Z,41.4
2024-05-09T12:15:54.063Z,42.4
2024-05-09T12:17:03.762Z,41.0
2024-05-09T12:18:08.288Z,42.8
2024-05-09T12:19:28.408Z,42.3
2024-05-09T12:20:39.929Z,42.1
2024-05-09T12:21:47.422Z,42.2
2024-05-09T12:22:51.094Z,42.2
2024-05-09T12:24:08.053Z,42.0
2024-05-09T12:25:16.922Z,40.9
2024-05-09T12:26:23.892Z,41.0
2024-05-09T12:27:42.795Z,42.1
2024-05-09T12:28:49.572Z,41.6
2024-05-09T12:29:53.282Z,41.6
2024-05-09T12:31:00.274Z,42.2
2024-05-09T12:32:09.314Z,42.2
2024-05-09T12:33:17.810Z,41.9
2024-05-09T12:34:21.650Z,42.6
2024-05-09T12:35:28.572Z,43.4
2024-05-09T12:36:40.023Z,43.4
2024-05-09T12:37:51.901Z,42.1
2024-05-09T12:39:03.217Z,42.7
2024-05-09T12:40:40.691Z,42.7
2024-05-09T12:41:54.623Z,42.3
2024-05-09T12:43:01.499Z,42.3
2024-05-09T12:44:05.199Z,42.9
2024-05-09T12:45:12.065Z,41.7
2024-05-09T12:46:15.854Z,41.7
2024-05-09T12:47:22.944Z,42.3
2024-05-09T12:48:26.834Z,42.1
2024-05-09T12:49:34.451Z,40.8
2024-05-09T12:50:41.209Z,41.2
2024-05-09T12:51:48.421Z,41.6
2024-05-09T12:52:52.195Z,40.7
2024-05-09T12:53:58.921Z,40.6
2024-05-09T12:55:02.892Z,40.8
2024-05-09T12:56:12.745Z,40.8
2024-05-09T12:57:16.519Z,40.9
2024-05-09T12:58:31.134Z,40.9
2024-05-09T12:59:44.928Z,39.2
2024-05-09T13:00:55.580Z,39.3
2024-05-09T13:02:04.912Z,39.5
2024-05-09T13:03:17.707Z,39.1
2024-05-09T13:04:21.774Z,39.4
2024-05-09T13:05:29.985Z,39.5
2024-05-09T13:06:34.103Z,39.3
2024-05-09T13:07:40.959Z,40.3
2024-05-09T13:08:52.233Z,40.6
2024-05-09T13:09:59.322Z,40.8
2024-05-09T13:11:08.266Z,41.4
2024-05-09T13:12:29.119Z,41.2
2024-05-09T13:13:32.862Z,40.9
2024-05-09T13:14:39.882Z,40.8
2024-05-09T13:15:51.252Z,40.8
2024-05-09T13:16:58.302Z,40.8
2024-05-09T13:18:07.467Z,41.5
2024-05-09T13:19:14.637Z,41.7
2024-05-09T13:20:35.159Z,41.1
2024-05-09T13:21:43.180Z,41.4
2024-05-09T13:22:51.883Z,42.0
2024-05-09T13:24:03.030Z,42.0
2024-05-09T13:25:06.981Z,40.5
2024-05-09T13:26:13.993Z,41.7
2024-05-09T13:27:20.265Z,41.6
2024-05-09T13:28:27.541Z,40.9
2024-05-09T13:29:31.376Z,40.9
2024-05-09T13:30:47.247Z,41.9
2024-05-09T13:31:56.071Z,42.2
2024-05-09T13:33:03.262Z,42.2
2024-05-09T13:34:07.216Z,41.6
2024-05-09T13:35:24.469Z,40.6
2024-05-09T13:36:30.861Z,40.4
2024-05-09T13:37:50.366Z,39.9
2024-05-09T13:38:59.260Z,39.3
2024-05-09T13:40:32.525Z,39.7
2024-05-09T13:41:51.374Z,39.6
2024-05-09T13:43:04.183Z,40.2
2024-05-09T13:44:10.758Z,39.9
2024-05-09T13:45:20.264Z,40.3
2024-05-09T13:46:34.168Z,39.4
2024-05-09T13:47:45.503Z,39.4
2024-05-09T13:48:52.205Z,40.0
2024-05-09T13:49:59.165Z,39.6
2024-05-09T13:51:10.402Z,38.7
2024-05-09T13:52:17.690Z,38.6
2024-05-09T13:53:21.429Z,38.4
2024-05-09T13:54:31.065Z,39.1
2024-05-09T13:55:37.310Z,39.0
2024-05-09T13:56:46.585Z,38.4
2024-05-09T13:58:03.328Z,38.6
2024-05-09T13:59:10.476Z,37.9
2024-05-09T14:00:40.861Z,38.3
2024-05-09T14:01:55.836Z,38.6
2024-05-09T14:03:02.487Z,38.9
2024-05-09T14:04:12.580Z,39.3
2024-05-09T14:05:17.482Z,39.0
2024-05-09T14:06:24.461Z,37.8
2024-05-09T14:07:28.168Z,38.6
2024-05-09T14:08:35.373Z,38.8
2024-05-09T14:09:39.204Z,37.2
2024-05-09T14:10:47.198Z,37.7
2024-05-09T14:11:56.505Z,38.9
2024-05-09T14:13:11.474Z,38.2
2024-05-09T14:14:17.810Z,38.5
2024-05-09T14:15:37.577Z,38.9
2024-05-09T14:16:44.134Z,38.9
2024-05-09T14:17:53.830Z,38.6
2024-05-09T14:18:57.645Z,39.0
2024-05-09T14:20:04.906Z,39.6
2024-05-09T14:21:12.396Z,39.0
2024-05-09T14:22:22.011Z,39.3
2024-05-09T14:23:25.785Z,39.0
2024-05-09T14:24:32.785Z,39.3
2024-05-09T14:25:41.756Z,39.8
2024-05-09T14:26:57.758Z,40.6
2024-05-09T14:28:01.649Z,39.5
2024-05-09T14:29:10.975Z,39.7
2024-05-09T14:30:31.170Z,39.9
2024-05-09T14:31:46.238Z,39.3
2024-05-09T14:32:55.314Z,39.4
2024-05-09T14:34:03.287Z,38.1
2024-05-09T14:35:07.147Z,38.2
2024-05-09T14:36:16.531Z,38.6
2024-05-09T14:37:20.253Z,38.8
2024-05-09T14:38:27.485Z,37.9
2024-05-09T14:39:34.050Z,38.1
2024-05-09T14:40:48.769Z,37.9
2024-05-09T14:41:52.577Z,37.8
2024-05-09T14:43:07.763Z,38.4
2024-05-09T14:44:19.104Z,38.2
2024-05-09T14:45:25.974Z,38.3
2024-05-09T14:46:32.266Z,37.6
2024-05-09T14:47:44.900Z,37.9
2024-05-09T14:48:56.432Z,37.8
2024-05-09T14:50:13.838Z,38.0
2024-05-09T14:51:28.155Z,38.2
2024-05-09T14:52:42.547Z,38.2
2024-05-09T14:53:48.774Z,38.5
2024-05-09T14:55:06.662Z,38.5
2024-05-09T14:56:13.841Z,39.8
2024-05-09T14:57:28.184Z,38.8
2024-05-09T14:58:32.500Z,38.8
2024-05-09T14:59:44.679Z,40.2
2024-05-09T15:00:52.687Z,40.7
2024-05-09T15:02:00.380Z,41.2
2024-05-09T15:03:09.368Z,41.8
2024-05-09T15:04:16.891Z,42.1
2024-05-09T15:05:36.017Z,42.2
2024-05-09T15:06:43.095Z,42.4
2024-05-09T15:07:54.385Z,42.7
2024-05-09T15:09:01.159Z,42.4
2024-05-09T15:10:09.046Z,42.1
2024-05-09T15:11:20.398Z,42.0
2024-05-09T15:12:24.230Z,42.0
2024-05-09T15:13:34.110Z,42.1
2024-05-09T15:14:37.780Z,42.2
2024-05-09T15:15:45.028Z,41.9
2024-05-09T15:16:51.320Z,41.7
2024-05-09T15:18:01.722Z,42.3
2024-05-09T15:19:13.369Z,42.6
2024-05-09T15:20:40.036Z,43.1
2024-05-09T15:21:46.471Z,42.5
2024-05-09T15:22:53.242Z,41.6
2024-05-09T15:24:04.519Z,41.5
2024-05-09T15:25:11.745Z,41.7
2024-05-09T15:26:18.024Z,41.1
2024-05-09T15:27:27.309Z,40.9
2024-05-09T15:28:31.165Z,41.6
2024-05-09T15:29:42.935Z,41.6
2024-05-09T15:30:48.486Z,41.6
2024-05-09T15:31:55.727Z,42.0
2024-05-09T15:33:08.914Z,41.1